Grand View, Tennessee
Current Conditions -  °F | °C
As of 7:53 PM on Wednesday 22 Oct 2014 (Local Time) from KCSV Reporting Station
Clear Clear  
Wind Chill: 50°   Ceiling: Unl
Heat Index: 50°   Visibility: 10mi
Dew Point: 39°   Wind: 9mph
Humidity: 66%   Direction: 40°NE
Pressure: 30.2"   Gusts: NA
Location:  35.7648°N, 84.863°W
Report Text: KCSV 222353Z AUTO 04008KT 10SM CLR 10/04 A3020 RMK AO2 SLP227 T01000039 10156 20100 53006
Loading
Personal Weather Stations






























Interactive Weather Map
Tropical Storm Tracking
New forecast layout! Learn more

10-Day Weather Forecast

Advertisements
Track Severe Weather on mobile